createdAt,value
2023-05-08T00:00:14.231Z,500.00
2023-05-08T00:01:13.939Z,500.00
2023-05-08T00:02:14.004Z,500.00
2023-05-08T00:03:14.109Z,452.00
2023-05-08T00:04:14.155Z,425.00
2023-05-08T00:05:14.058Z,426.00
2023-05-08T00:06:14.121Z,436.00
2023-05-08T00:07:14.098Z,449.00
2023-05-08T00:08:14.129Z,484.00
2023-05-08T00:09:14.165Z,500.00
2023-05-08T00:10:14.446Z,498.00
2023-05-08T00:11:14.227Z,500.00
2023-05-08T00:12:14.245Z,500.00
2023-05-08T00:13:14.347Z,500.00
2023-05-08T00:14:14.312Z,500.00
2023-05-08T00:15:14.360Z,500.00
2023-05-08T00:16:14.406Z,499.00
2023-05-08T00:17:14.373Z,501.00
2023-05-08T00:18:14.382Z,500.00
2023-05-08T00:19:14.387Z,500.00
2023-05-08T00:20:14.722Z,500.00
2023-05-08T00:21:14.392Z,500.00
2023-05-08T00:22:14.409Z,502.00
2023-05-08T00:23:14.421Z,501.00
2023-05-08T00:24:14.419Z,500.00
2023-05-08T00:25:14.436Z,503.00
2023-05-08T00:26:14.433Z,500.00
2023-05-08T00:27:14.439Z,502.00
2023-05-08T00:28:14.437Z,500.00
2023-05-08T00:29:14.528Z,500.00
2023-05-08T00:30:14.594Z,505.00
2023-05-08T00:31:14.445Z,502.00
2023-05-08T00:32:14.523Z,500.00
2023-05-08T00:33:14.517Z,503.00
2023-05-08T00:34:14.454Z,504.00
2023-05-08T00:35:14.465Z,504.00
2023-05-08T00:36:14.476Z,500.00
2023-05-08T00:37:14.469Z,505.00
2023-05-08T00:38:14.478Z,506.00
2023-05-08T00:39:14.471Z,501.00
2023-05-08T00:40:14.710Z,507.00
2023-05-08T00:41:14.492Z,501.00
2023-05-08T00:42:14.470Z,504.00
2023-05-08T00:43:14.459Z,502.00
2023-05-08T00:44:14.460Z,503.00
2023-05-08T00:45:14.475Z,503.00
2023-05-08T00:46:14.501Z,501.00
2023-05-08T00:47:14.446Z,504.00
2023-05-08T00:48:14.459Z,505.00
2023-05-08T00:49:14.612Z,502.00
2023-05-08T00:50:14.896Z,505.00
2023-05-08T00:51:14.461Z,500.00
2023-05-08T00:52:14.429Z,501.00
2023-05-08T00:53:14.431Z,506.00
2023-05-08T00:54:14.436Z,507.00
2023-05-08T00:55:14.431Z,506.00
2023-05-08T00:56:14.452Z,503.00
2023-05-08T00:57:14.437Z,503.00
2023-05-08T00:58:14.418Z,503.00
2023-05-08T00:59:14.418Z,500.00
2023-05-08T01:00:14.677Z,503.00
2023-05-08T01:01:14.463Z,503.00
2023-05-08T01:02:14.452Z,503.00
2023-05-08T01:03:14.577Z,505.00
2023-05-08T01:04:14.426Z,502.00
2023-05-08T01:05:14.421Z,500.00
2023-05-08T01:06:14.439Z,508.00
2023-05-08T01:07:14.419Z,509.00
2023-05-08T01:08:14.418Z,506.00
2023-05-08T01:09:14.408Z,502.00
2023-05-08T01:10:14.803Z,504.00
2023-05-08T01:11:14.431Z,511.00
2023-05-08T01:12:14.437Z,510.00
2023-05-08T01:13:14.450Z,503.00
2023-05-08T01:14:14.404Z,505.00
2023-05-08T01:15:14.407Z,507.00
2023-05-08T01:16:14.538Z,506.00
2023-05-08T01:17:14.452Z,504.00
2023-05-08T01:18:14.392Z,505.00
2023-05-08T01:19:14.412Z,505.00
2023-05-08T01:20:14.561Z,503.00
2023-05-08T01:21:14.406Z,509.00
2023-05-08T01:22:14.388Z,501.00
2023-05-08T01:23:14.396Z,504.00
2023-05-08T01:24:14.396Z,502.00
2023-05-08T01:25:14.393Z,506.00
2023-05-08T01:26:14.391Z,510.00
2023-05-08T01:27:14.398Z,511.00
2023-05-08T01:28:14.407Z,501.00
2023-05-08T01:29:14.392Z,503.00
2023-05-08T01:30:14.561Z,500.00
2023-05-08T01:31:14.401Z,502.00
2023-05-08T01:32:14.414Z,502.00
2023-05-08T01:33:14.508Z,504.00
2023-05-08T01:34:14.407Z,505.00
2023-05-08T01:35:14.395Z,511.00
2023-05-08T01:36:14.402Z,505.00
2023-05-08T01:37:14.396Z,508.00
2023-05-08T01:38:14.403Z,503.00
2023-05-08T01:39:14.401Z,511.00
2023-05-08T01:40:14.799Z,509.00
2023-05-08T01:41:14.425Z,504.00
2023-05-08T01:42:14.420Z,504.00
2023-05-08T01:43:15.124Z,506.00
2023-05-08T01:44:14.441Z,505.00
2023-05-08T01:45:14.437Z,508.00
2023-05-08T01:46:14.480Z,505.00
2023-05-08T01:47:14.425Z,508.00
2023-05-08T01:48:14.430Z,504.00
2023-05-08T01:49:14.457Z,505.00
2023-05-08T01:50:14.730Z,510.00
2023-05-08T01:51:14.425Z,505.00
2023-05-08T01:52:14.423Z,505.00
2023-05-08T01:53:14.433Z,508.00
2023-05-08T01:54:14.433Z,512.00
2023-05-08T01:55:14.441Z,504.00
2023-05-08T01:56:14.450Z,503.00
2023-05-08T01:57:14.454Z,509.00
2023-05-08T01:58:14.446Z,505.00
2023-05-08T01:59:14.467Z,507.00
2023-05-08T02:00:14.807Z,508.00
2023-05-08T02:01:14.526Z,500.00
2023-05-08T02:02:14.515Z,503.00
2023-05-08T02:03:14.504Z,506.00
2023-05-08T02:04:14.540Z,510.00
2023-05-08T02:05:14.519Z,502.00
2023-05-08T02:06:14.486Z,509.00
2023-05-08T02:07:14.483Z,505.00
2023-05-08T02:08:14.490Z,506.00
2023-05-08T02:09:14.493Z,500.00
2023-05-08T02:10:14.684Z,505.00
2023-05-08T02:11:14.500Z,505.00
2023-05-08T02:12:14.520Z,505.00
2023-05-08T02:13:14.575Z,503.00
2023-05-08T02:14:14.505Z,505.00
2023-05-08T02:15:14.523Z,500.00
2023-05-08T02:16:14.581Z,506.00
2023-05-08T02:17:14.532Z,505.00
2023-05-08T02:18:14.534Z,505.00
2023-05-08T02:19:14.533Z,503.00
2023-05-08T02:20:14.730Z,508.00
2023-05-08T02:21:14.556Z,503.00
2023-05-08T02:22:14.542Z,503.00
2023-05-08T02:23:15.146Z,506.00
2023-05-08T02:24:14.558Z,507.00
2023-05-08T02:25:14.584Z,505.00
2023-05-08T02:26:14.566Z,505.00
2023-05-08T02:27:14.560Z,509.00
2023-05-08T02:28:14.564Z,508.00
2023-05-08T02:29:14.569Z,502.00
2023-05-08T02:30:14.790Z,508.00
2023-05-08T02:31:14.576Z,502.00
2023-05-08T02:32:14.736Z,503.00
2023-05-08T02:33:14.648Z,507.00
2023-05-08T02:34:14.583Z,507.00
2023-05-08T02:35:14.595Z,506.00
2023-05-08T02:36:14.601Z,509.00
2023-05-08T02:37:14.641Z,508.00
2023-05-08T02:38:14.627Z,508.00
2023-05-08T02:39:14.634Z,511.00
2023-05-08T02:40:14.970Z,507.00
2023-05-08T02:41:14.658Z,513.00
2023-05-08T02:42:14.660Z,512.00
2023-05-08T02:43:14.674Z,509.00
2023-05-08T02:44:14.684Z,510.00
2023-05-08T02:45:15.057Z,513.00
2023-05-08T02:46:15.148Z,509.00
2023-05-08T02:47:15.108Z,505.00
2023-05-08T02:48:15.121Z,508.00
2023-05-08T02:49:15.105Z,507.00
2023-05-08T02:50:15.099Z,505.00
2023-05-08T02:51:15.100Z,514.00
2023-05-08T02:52:15.125Z,511.00
2023-05-08T02:53:15.130Z,509.00
2023-05-08T02:54:15.105Z,507.00
2023-05-08T02:55:15.126Z,504.00
2023-05-08T02:56:15.106Z,506.00
2023-05-08T02:57:15.104Z,512.00
2023-05-08T02:58:15.115Z,508.00
2023-05-08T02:59:15.102Z,505.00
2023-05-08T03:00:15.144Z,506.00
2023-05-08T03:01:15.140Z,509.00
2023-05-08T03:02:15.143Z,508.00
2023-05-08T03:03:15.367Z,512.00
2023-05-08T03:04:15.114Z,504.00
2023-05-08T03:05:15.103Z,507.00
2023-05-08T03:06:15.122Z,504.00
2023-05-08T03:07:15.105Z,509.00
2023-05-08T03:08:15.106Z,505.00
2023-05-08T03:09:15.132Z,505.00
2023-05-08T03:10:15.295Z,506.00
2023-05-08T03:11:15.098Z,506.00
2023-05-08T03:12:15.097Z,510.00
2023-05-08T03:13:15.203Z,509.00
2023-05-08T03:14:15.105Z,508.00
2023-05-08T03:15:15.099Z,508.00
2023-05-08T03:16:15.290Z,502.00
2023-05-08T03:17:15.096Z,506.00
2023-05-08T03:18:15.094Z,509.00
2023-05-08T03:19:15.106Z,509.00
2023-05-08T03:20:15.276Z,505.00
2023-05-08T03:21:15.099Z,511.00
2023-05-08T03:22:15.098Z,509.00
2023-05-08T03:23:15.105Z,506.00
2023-05-08T03:24:15.132Z,504.00
2023-05-08T03:25:15.226Z,509.00
2023-05-08T03:26:15.132Z,508.00
2023-05-08T03:27:15.143Z,505.00
2023-05-08T03:28:15.152Z,504.00
2023-05-08T03:29:15.213Z,507.00
2023-05-08T03:30:15.453Z,513.00
2023-05-08T03:31:15.283Z,504.00
2023-05-08T03:32:15.221Z,510.00
2023-05-08T03:33:15.228Z,504.00
2023-05-08T03:34:15.229Z,511.00
2023-05-08T03:35:15.234Z,505.00
2023-05-08T03:36:15.263Z,507.00
2023-05-08T03:37:15.267Z,507.00
2023-05-08T03:38:15.265Z,509.00
2023-05-08T03:39:15.283Z,506.00
2023-05-08T03:40:15.299Z,509.00
2023-05-08T03:41:15.330Z,508.00
2023-05-08T03:42:15.320Z,507.00
2023-05-08T03:43:15.341Z,508.00
2023-05-08T03:44:15.351Z,506.00
2023-05-08T03:45:15.369Z,507.00
2023-05-08T03:46:15.400Z,507.00
2023-05-08T03:47:15.393Z,507.00
2023-05-08T03:48:15.530Z,508.00
2023-05-08T03:49:15.413Z,502.00
2023-05-08T03:50:15.463Z,508.00
2023-05-08T03:51:15.436Z,511.00
2023-05-08T03:52:15.446Z,505.00
2023-05-08T03:53:15.520Z,506.00
2023-05-08T03:54:15.473Z,506.00
2023-05-08T03:55:15.497Z,507.00
2023-05-08T03:56:15.501Z,508.00
2023-05-08T03:57:15.688Z,506.00
2023-05-08T03:58:15.547Z,507.00
2023-05-08T03:59:15.556Z,512.00
2023-05-08T04:00:15.664Z,506.00
2023-05-08T04:01:15.591Z,509.00
2023-05-08T04:02:15.692Z,511.00
2023-05-08T04:03:15.751Z,502.00
2023-05-08T04:04:15.728Z,506.00
2023-05-08T04:05:15.672Z,515.00
2023-05-08T04:06:15.659Z,510.00
2023-05-08T04:07:15.662Z,505.00
2023-05-08T04:08:15.730Z,510.00
2023-05-08T04:09:15.683Z,509.00
2023-05-08T04:10:15.896Z,509.00
2023-05-08T04:11:15.704Z,504.00
2023-05-08T04:12:15.700Z,504.00
2023-05-08T04:13:15.761Z,506.00
2023-05-08T04:14:15.719Z,509.00
2023-05-08T04:15:15.890Z,505.00
2023-05-08T04:16:16.120Z,514.00
2023-05-08T04:17:16.122Z,510.00
2023-05-08T04:18:16.124Z,514.00
2023-05-08T04:19:16.158Z,509.00
2023-05-08T04:20:16.123Z,501.00
2023-05-08T04:21:16.126Z,512.00
2023-05-08T04:22:16.132Z,508.00
2023-05-08T04:23:16.128Z,510.00
2023-05-08T04:24:16.135Z,503.00
2023-05-08T04:25:16.243Z,503.00
2023-05-08T04:26:16.650Z,508.00
2023-05-08T04:27:16.135Z,508.00
2023-05-08T04:28:16.128Z,511.00
2023-05-08T04:29:16.162Z,506.00
2023-05-08T04:30:16.145Z,508.00
2023-05-08T04:31:16.211Z,514.00
2023-05-08T04:32:16.189Z,509.00
2023-05-08T04:33:16.178Z,503.00
2023-05-08T04:34:16.136Z,511.00
2023-05-08T04:35:16.453Z,507.00
2023-05-08T04:36:16.146Z,512.00
2023-05-08T04:37:16.150Z,510.00
2023-05-08T04:38:16.142Z,507.00
2023-05-08T04:39:16.150Z,513.00
2023-05-08T04:40:16.149Z,508.00
2023-05-08T04:41:16.316Z,513.00
2023-05-08T04:42:16.160Z,511.00
2023-05-08T04:43:16.152Z,503.00
2023-05-08T04:44:16.158Z,514.00
2023-05-08T04:45:16.194Z,512.00
2023-05-08T04:46:16.191Z,507.00
2023-05-08T04:47:16.180Z,507.00
2023-05-08T04:48:16.152Z,511.00
2023-05-08T04:49:16.154Z,511.00
2023-05-08T04:50:16.158Z,511.00
2023-05-08T04:51:16.171Z,509.00
2023-05-08T04:52:16.196Z,507.00
2023-05-08T04:53:16.211Z,510.00
2023-05-08T04:54:16.219Z,505.00
2023-05-08T04:55:16.239Z,511.00
2023-05-08T04:56:16.247Z,509.00
2023-05-08T04:57:16.266Z,508.00
2023-05-08T04:58:16.276Z,510.00
2023-05-08T04:59:16.348Z,506.00
2023-05-08T05:00:16.317Z,508.00
2023-05-08T05:01:16.364Z,504.00
2023-05-08T05:02:16.327Z,508.00
2023-05-08T05:03:16.422Z,510.00
2023-05-08T05:04:16.375Z,516.00
2023-05-08T05:05:16.470Z,509.00
2023-05-08T05:06:16.393Z,506.00
2023-05-08T05:07:16.415Z,507.00
2023-05-08T05:08:16.415Z,512.00
2023-05-08T05:09:16.479Z,507.00
2023-05-08T05:10:16.474Z,506.00
2023-05-08T05:11:16.484Z,514.00
2023-05-08T05:12:16.502Z,508.00
2023-05-08T05:13:16.968Z,505.00
2023-05-08T05:14:16.532Z,511.00
2023-05-08T05:15:16.552Z,513.00
2023-05-08T05:16:16.605Z,504.00
2023-05-08T05:17:16.620Z,508.00
2023-05-08T05:18:17.460Z,515.00
2023-05-08T05:19:16.633Z,512.00
2023-05-08T05:20:16.970Z,512.00
2023-05-08T05:21:16.670Z,515.00
2023-05-08T05:22:16.950Z,512.00
2023-05-08T05:23:16.720Z,517.00
2023-05-08T05:24:16.722Z,540.00
2023-05-08T05:25:16.762Z,557.00
2023-05-08T05:26:17.005Z,573.00
2023-05-08T05:27:17.521Z,585.00
2023-05-08T05:28:16.794Z,590.00
2023-05-08T05:29:16.791Z,603.00
2023-05-08T05:30:16.809Z,597.00
2023-05-08T05:31:16.900Z,600.00
2023-05-08T05:32:16.785Z,613.00
2023-05-08T05:33:16.787Z,622.00
2023-05-08T05:34:16.769Z,629.00
2023-05-08T05:35:16.745Z,642.00
2023-05-08T05:36:16.730Z,649.00
2023-05-08T05:37:16.967Z,669.00
2023-05-08T05:38:17.461Z,670.00
2023-05-08T05:39:16.729Z,663.00
2023-05-08T05:40:16.987Z,674.00
2023-05-08T05:41:16.733Z,675.00
2023-05-08T05:42:16.971Z,673.00
2023-05-08T05:43:16.849Z,667.00
2023-05-08T05:44:16.696Z,686.00
2023-05-08T05:45:16.959Z,704.00
2023-05-08T05:46:16.684Z,705.00
2023-05-08T05:47:16.777Z,713.00
2023-05-08T05:48:16.645Z,742.00
2023-05-08T05:49:16.683Z,744.00
2023-05-08T05:50:16.966Z,754.00
2023-05-08T05:51:16.627Z,745.00
2023-05-08T05:52:24.022Z,767.00
2023-05-08T05:53:16.618Z,771.00
2023-05-08T05:54:16.607Z,795.00
2023-05-08T05:55:16.966Z,815.00
2023-05-08T05:56:16.585Z,859.00
2023-05-08T05:57:16.962Z,969.00
2023-05-08T05:58:16.963Z,982.00
2023-05-08T05:59:16.572Z,973.00
2023-05-08T06:00:16.602Z,930.00
2023-05-08T06:01:16.577Z,951.00
2023-05-08T06:02:16.982Z,943.00
2023-05-08T06:03:16.626Z,944.00
2023-05-08T06:06:16.539Z,948.00
2023-05-08T06:07:17.137Z,972.00
2023-05-08T06:08:23.907Z,1006.00
2023-05-08T06:09:16.529Z,949.00
2023-05-08T06:10:16.529Z,965.00
2023-05-08T06:11:19.699Z,992.00
2023-05-08T06:12:16.469Z,949.00
2023-05-08T06:13:16.549Z,963.00
2023-05-08T06:14:16.532Z,983.00
2023-05-08T06:15:16.449Z,1022.00
2023-05-08T06:16:16.473Z,1064.00
2023-05-08T06:17:17.419Z,1053.00
2023-05-08T06:18:16.420Z,1083.00
2023-05-08T06:19:16.429Z,1102.00
2023-05-08T06:20:16.484Z,1131.00
2023-05-08T06:21:16.412Z,1180.00
2023-05-08T06:22:16.430Z,1212.00
2023-05-08T06:23:16.378Z,1223.00
2023-05-08T06:24:16.384Z,1242.00
2023-05-08T06:25:16.477Z,1245.00
2023-05-08T06:26:16.356Z,1253.00
2023-05-08T06:27:16.470Z,1264.00
2023-05-08T06:28:16.346Z,1278.00
2023-05-08T06:29:16.349Z,1296.00
2023-05-08T06:30:16.481Z,1315.00
2023-05-08T06:31:16.389Z,1330.00
2023-05-08T06:32:16.333Z,1345.00
2023-05-08T06:33:16.311Z,1357.00
2023-05-08T06:34:16.391Z,1366.00
2023-05-08T06:35:16.481Z,1385.00
2023-05-08T06:36:16.524Z,1403.00
2023-05-08T06:37:16.548Z,1421.00
2023-05-08T06:38:16.639Z,1439.00
2023-05-08T06:39:16.645Z,1451.00
2023-05-08T06:40:16.704Z,1458.00
2023-05-08T06:41:16.748Z,1498.00
2023-05-08T06:42:16.782Z,1528.00
2023-05-08T06:43:17.176Z,1524.00
2023-05-08T06:44:17.240Z,1561.00
2023-05-08T06:45:17.511Z,1559.00
2023-05-08T06:46:17.175Z,1573.00
2023-05-08T06:47:20.692Z,1598.00
2023-05-08T06:48:16.954Z,1598.00
2023-05-08T06:49:16.933Z,1600.00
2023-05-08T06:50:16.947Z,1605.00
2023-05-08T06:51:16.960Z,1612.00
2023-05-08T06:52:16.986Z,1618.00
2023-05-08T06:53:16.902Z,1638.00
2023-05-08T06:54:17.115Z,1637.00
2023-05-08T06:55:16.916Z,1652.00
2023-05-08T06:56:17.017Z,1673.00
2023-05-08T06:57:17.044Z,1667.00
2023-05-08T06:58:16.895Z,1686.00
2023-05-08T06:59:16.897Z,1686.00
2023-05-08T07:00:16.893Z,1699.00
2023-05-08T07:01:17.240Z,1711.00
2023-05-08T07:02:17.316Z,1726.00
2023-05-08T07:03:17.586Z,1724.00
2023-05-08T07:04:17.160Z,1735.00
2023-05-08T07:05:17.485Z,1743.00
2023-05-08T07:06:17.255Z,1728.00
2023-05-08T07:07:17.274Z,1745.00
2023-05-08T07:08:17.184Z,1756.00
2023-05-08T07:09:17.207Z,1763.00
2023-05-08T07:10:17.205Z,1767.00
2023-05-08T07:11:16.823Z,1773.00
2023-05-08T07:12:20.094Z,1773.00
2023-05-08T07:13:17.076Z,1775.00
2023-05-08T07:14:16.844Z,1778.00
2023-05-08T07:15:25.528Z,1786.00
2023-05-08T07:16:16.847Z,1776.00
2023-05-08T07:17:16.813Z,1782.00
2023-05-08T07:18:20.435Z,1790.00
2023-05-08T07:19:16.795Z,1776.00
2023-05-08T07:20:16.777Z,1783.00
2023-05-08T07:21:16.773Z,1793.00
2023-05-08T07:22:16.807Z,1818.00
2023-05-08T07:23:17.233Z,1845.00
2023-05-08T07:24:17.068Z,1839.00
2023-05-08T07:25:16.734Z,1851.00
2023-05-08T07:26:16.888Z,1851.00
2023-05-08T07:27:16.779Z,1837.00
2023-05-08T07:28:17.002Z,1838.00
2023-05-08T07:29:16.714Z,1837.00
2023-05-08T07:30:16.878Z,1853.00
2023-05-08T07:31:16.736Z,1859.00
2023-05-08T07:32:19.892Z,1877.00
2023-05-08T07:33:17.048Z,1878.00
2023-05-08T07:34:16.692Z,1881.00
2023-05-08T07:35:17.033Z,1885.00
2023-05-08T07:36:16.667Z,1903.00
2023-05-08T07:37:16.654Z,1922.00
2023-05-08T07:38:32.244Z,1915.00
2023-05-08T07:39:17.241Z,1917.00
2023-05-08T07:41:16.685Z,1919.00
2023-05-08T07:42:16.728Z,1928.00
2023-05-08T07:43:16.644Z,1933.00
2023-05-08T07:44:17.033Z,1944.00
2023-05-08T07:45:16.819Z,1966.00
2023-05-08T07:46:17.266Z,1962.00
2023-05-08T07:47:16.694Z,1973.00
2023-05-08T07:48:20.389Z,1967.00
2023-05-08T07:49:17.208Z,1967.00
2023-05-08T07:50:19.756Z,1963.00
2023-05-08T07:51:16.554Z,1967.00
2023-05-08T07:52:16.559Z,1967.00
2023-05-08T07:53:48.821Z,1967.00
2023-05-08T07:54:20.219Z,1968.00
2023-05-08T07:55:23.953Z,1969.00
2023-05-08T07:56:19.708Z,1969.00
2023-05-08T07:57:24.415Z,1969.00
2023-05-08T07:58:24.093Z,1969.00
2023-05-08T07:59:16.503Z,1969.00
2023-05-08T08:00:19.733Z,1959.00
2023-05-08T08:01:16.474Z,1938.00
2023-05-08T08:02:16.893Z,1865.00
2023-05-08T08:03:19.863Z,1830.00
2023-05-08T08:04:16.548Z,1823.00
2023-05-08T08:05:23.908Z,1764.00
2023-05-08T08:06:16.454Z,1781.00
2023-05-08T08:07:16.438Z,1735.00
2023-05-08T08:08:16.513Z,1680.00
2023-05-08T08:09:16.430Z,1619.00
2023-05-08T08:10:16.423Z,1590.00
2023-05-08T08:11:16.401Z,1569.00
2023-05-08T08:12:16.402Z,1547.00
2023-05-08T08:13:16.773Z,1515.00
2023-05-08T08:14:16.520Z,1505.00
2023-05-08T08:15:16.511Z,1489.00
2023-05-08T08:16:16.381Z,1474.00
2023-05-08T08:17:16.472Z,1451.00
2023-05-08T08:18:16.483Z,1434.00
2023-05-08T08:19:16.519Z,1418.00
2023-05-08T08:20:16.356Z,1411.00
2023-05-08T08:21:16.340Z,1396.00
2023-05-08T08:22:16.344Z,1389.00
2023-05-08T08:23:16.330Z,1375.00
2023-05-08T08:24:16.321Z,1359.00
2023-05-08T08:25:16.520Z,1332.00
2023-05-08T08:26:16.302Z,1325.00
2023-05-08T08:27:16.399Z,1318.00
2023-05-08T08:28:16.306Z,1304.00
2023-05-08T08:29:16.650Z,1296.00
2023-05-08T08:30:18.201Z,1290.00
2023-05-08T08:31:16.572Z,1321.00
2023-05-08T08:32:16.274Z,1313.00
2023-05-08T08:33:18.807Z,1297.00
2023-05-08T08:34:16.257Z,1297.00
2023-05-08T08:35:16.896Z,1281.00
2023-05-08T08:36:16.247Z,1281.00
2023-05-08T08:37:16.239Z,1283.00
2023-05-08T08:38:16.248Z,1271.00
2023-05-08T08:39:16.248Z,1280.00
2023-05-08T08:40:16.519Z,1258.00
2023-05-08T08:41:23.639Z,1239.00
2023-05-08T08:42:48.055Z,1241.00
2023-05-08T08:43:16.184Z,1242.00
2023-05-08T08:44:31.910Z,1248.00
2023-05-08T08:45:16.768Z,1242.00
2023-05-08T08:46:16.365Z,1242.00
2023-05-08T08:47:16.236Z,1247.00
2023-05-08T08:48:16.164Z,1274.00
2023-05-08T08:49:16.530Z,1304.00
2023-05-08T08:50:16.165Z,1380.00
2023-05-08T08:51:16.158Z,1401.00
2023-05-08T08:52:16.129Z,1415.00
2023-05-08T08:53:16.129Z,1416.00
2023-05-08T08:54:16.543Z,1415.00
2023-05-08T08:55:16.574Z,1417.00
2023-05-08T08:56:16.326Z,1412.00
2023-05-08T08:57:16.286Z,1400.00
2023-05-08T08:58:16.540Z,1397.00
2023-05-08T08:59:16.087Z,1388.00
2023-05-08T09:00:16.201Z,1393.00
2023-05-08T09:01:16.072Z,1380.00
2023-05-08T09:02:16.073Z,1356.00
2023-05-08T09:03:16.159Z,1355.00
2023-05-08T09:04:16.197Z,1392.00
2023-05-08T09:05:16.345Z,1407.00
2023-05-08T09:06:16.301Z,1396.00
2023-05-08T09:07:16.293Z,1396.00
2023-05-08T09:08:16.304Z,1396.00
2023-05-08T09:09:16.247Z,1365.00
2023-05-08T09:10:16.534Z,1390.00
2023-05-08T09:11:16.300Z,1390.00
2023-05-08T09:12:16.339Z,1390.00
2023-05-08T09:13:17.422Z,1368.00
2023-05-08T09:14:16.392Z,1369.00
2023-05-08T09:15:16.639Z,1363.00
2023-05-08T09:16:16.704Z,1362.00
2023-05-08T09:17:16.361Z,1353.00
2023-05-08T09:18:16.415Z,1349.00
2023-05-08T09:19:16.347Z,1341.00
2023-05-08T09:20:16.369Z,1339.00
2023-05-08T09:21:16.331Z,1332.00
2023-05-08T09:22:16.325Z,1318.00
2023-05-08T09:23:16.380Z,1319.00
2023-05-08T09:24:16.451Z,1315.00
2023-05-08T09:25:16.489Z,1316.00
2023-05-08T09:26:32.134Z,1310.00
2023-05-08T09:27:16.360Z,1312.00
2023-05-08T09:28:16.600Z,1313.00
2023-05-08T09:29:16.265Z,1307.00
2023-05-08T09:30:23.687Z,1307.00
2023-05-08T09:31:16.770Z,1311.00
2023-05-08T09:32:16.458Z,1310.00
2023-05-08T09:33:16.540Z,1298.00
2023-05-08T09:34:16.233Z,1289.00
2023-05-08T09:35:16.553Z,1271.00
2023-05-08T09:36:16.590Z,1266.00
2023-05-08T09:37:16.217Z,1254.00
2023-05-08T09:38:17.202Z,1264.00
2023-05-08T09:39:16.205Z,1266.00
2023-05-08T09:40:16.200Z,1267.00
2023-05-08T09:41:16.597Z,1252.00
2023-05-08T09:42:16.167Z,1256.00
2023-05-08T09:43:19.615Z,1251.00
2023-05-08T09:44:16.169Z,1252.00
2023-05-08T09:45:17.585Z,1254.00
2023-05-08T09:46:17.366Z,1258.00
2023-05-08T09:47:16.332Z,1257.00
2023-05-08T09:48:16.716Z,1249.00
2023-05-08T09:49:16.329Z,1242.00
2023-05-08T09:50:16.504Z,1245.00
2023-05-08T09:51:16.546Z,1236.00
2023-05-08T09:52:16.462Z,1251.00
2023-05-08T09:53:16.554Z,1251.00
2023-05-08T09:54:16.528Z,1264.00
2023-05-08T09:55:16.573Z,1252.00
2023-05-08T09:56:17.091Z,1247.00
2023-05-08T09:57:16.665Z,1252.00
2023-05-08T09:58:16.728Z,1249.00
2023-05-08T09:59:16.754Z,1242.00
2023-05-08T10:00:17.161Z,1251.00
2023-05-08T10:01:17.063Z,1249.00
2023-05-08T10:02:16.881Z,1245.00
2023-05-08T10:03:17.059Z,1242.00
2023-05-08T10:04:17.089Z,1244.00
2023-05-08T10:05:17.047Z,1246.00
2023-05-08T10:06:17.547Z,1249.00
2023-05-08T10:07:17.356Z,1236.00
2023-05-08T10:08:17.328Z,1231.00
2023-05-08T10:09:17.413Z,1232.00
2023-05-08T10:10:17.341Z,1230.00
2023-05-08T10:11:17.342Z,1218.00
2023-05-08T10:12:17.246Z,1214.00
2023-05-08T10:13:17.600Z,1214.00
2023-05-08T10:14:17.250Z,1205.00
2023-05-08T10:15:17.289Z,1214.00
2023-05-08T10:16:17.342Z,1225.00
2023-05-08T10:17:17.624Z,1220.00
2023-05-08T10:18:18.278Z,1226.00
2023-05-08T10:19:17.387Z,1232.00
2023-05-08T10:20:18.613Z,1234.00
2023-05-08T10:21:17.581Z,1251.00
2023-05-08T10:22:17.377Z,1236.00
2023-05-08T10:23:17.380Z,1241.00
2023-05-08T10:24:20.564Z,1242.00
2023-05-08T10:25:17.351Z,1244.00
2023-05-08T10:26:17.559Z,1244.00
2023-05-08T10:27:17.336Z,1222.00
2023-05-08T10:28:17.325Z,1226.00
2023-05-08T10:29:17.312Z,1230.00
2023-05-08T10:30:17.344Z,1224.00
2023-05-08T10:31:17.702Z,1250.00
2023-05-08T10:32:17.564Z,1255.00
2023-05-08T10:33:17.302Z,1255.00
2023-05-08T10:34:17.288Z,1246.00
2023-05-08T10:35:17.299Z,1239.00
2023-05-08T10:36:17.709Z,1239.00
2023-05-08T10:37:17.295Z,1237.00
2023-05-08T10:38:17.263Z,1210.00
2023-05-08T10:39:17.257Z,1211.00
2023-05-08T10:40:17.238Z,1222.00
2023-05-08T10:41:20.816Z,1212.00
2023-05-08T10:42:17.214Z,1214.00
2023-05-08T10:43:17.236Z,1216.00
2023-05-08T10:44:17.198Z,1218.00
2023-05-08T10:45:17.185Z,1219.00
2023-05-08T10:46:18.572Z,1212.00
2023-05-08T10:47:17.176Z,1229.00
2023-05-08T10:48:17.165Z,1207.00
2023-05-08T10:49:17.192Z,1231.00
2023-05-08T10:50:18.140Z,1226.00
2023-05-08T10:51:17.575Z,1207.00
2023-05-08T10:52:17.211Z,1203.00
2023-05-08T10:53:18.165Z,1217.00
2023-05-08T10:54:20.379Z,1225.00
2023-05-08T10:55:17.176Z,1226.00
2023-05-08T10:56:17.328Z,1227.00
2023-05-08T10:57:17.312Z,1224.00
2023-05-08T10:58:17.570Z,1228.00
2023-05-08T10:59:17.655Z,1216.00
2023-05-08T11:00:17.181Z,1217.00
2023-05-08T11:01:17.693Z,1226.00
2023-05-08T11:02:17.200Z,1211.00
2023-05-08T11:03:30.693Z,1223.00
2023-05-08T11:04:17.180Z,1225.00
2023-05-08T11:05:17.145Z,1229.00
2023-05-08T11:06:17.576Z,1227.00
2023-05-08T11:07:17.102Z,1228.00
2023-05-08T11:08:17.105Z,1229.00
2023-05-08T11:09:17.088Z,1268.00
2023-05-08T11:10:17.576Z,1264.00
2023-05-08T11:11:17.257Z,1268.00
2023-05-08T11:12:17.055Z,1266.00
2023-05-08T11:13:18.063Z,1265.00
2023-05-08T11:14:17.078Z,1255.00
2023-05-08T11:15:17.077Z,1253.00
2023-05-08T11:16:17.108Z,1244.00
2023-05-08T11:17:17.037Z,1243.00
2023-05-08T11:18:17.011Z,1241.00
2023-05-08T11:19:17.517Z,1250.00
2023-05-08T11:20:17.660Z,1245.00
2023-05-08T11:21:17.601Z,1227.00
2023-05-08T11:22:17.396Z,1232.00
2023-05-08T11:23:49.261Z,1248.00
2023-05-08T11:24:17.216Z,1250.00
2023-05-08T11:25:16.984Z,1252.00
2023-05-08T11:26:17.009Z,1242.00
2023-05-08T11:27:16.956Z,1216.00
2023-05-08T11:28:17.124Z,1214.00
2023-05-08T11:29:17.082Z,1193.00
2023-05-08T11:30:16.924Z,1174.00
2023-05-08T11:31:16.948Z,1166.00
2023-05-08T11:33:16.922Z,1155.00
2023-05-08T11:34:18.389Z,1160.00
2023-05-08T11:35:16.959Z,1165.00
2023-05-08T11:36:17.428Z,1169.00
2023-05-08T11:37:18.601Z,1153.00
2023-05-08T11:38:17.408Z,1162.00
2023-05-08T11:39:17.184Z,1162.00
2023-05-08T11:40:17.208Z,1157.00
2023-05-08T11:41:18.223Z,1158.00
2023-05-08T11:42:18.580Z,1143.00
2023-05-08T11:43:17.315Z,1154.00
2023-05-08T11:44:20.709Z,1153.00
2023-05-08T11:45:17.351Z,1154.00
2023-05-08T11:46:17.500Z,1156.00
2023-05-08T11:47:17.492Z,1153.00
2023-05-08T11:48:17.396Z,1154.00
2023-05-08T11:49:18.877Z,1140.00
2023-05-08T11:50:17.623Z,1153.00
2023-05-08T11:51:17.435Z,1153.00
2023-05-08T11:52:17.425Z,1141.00
2023-05-08T11:53:17.375Z,1138.00
2023-05-08T11:54:17.592Z,1131.00
2023-05-08T11:55:17.420Z,1122.00
2023-05-08T11:56:17.411Z,1100.00
2023-05-08T11:57:17.421Z,1082.00
2023-05-08T11:58:17.282Z,1088.00
2023-05-08T11:59:17.594Z,1074.00
2023-05-08T12:00:24.698Z,1084.00
2023-05-08T12:01:17.468Z,1086.00
2023-05-08T12:02:17.266Z,1091.00
2023-05-08T12:03:17.516Z,1100.00
2023-05-08T12:04:17.847Z,1124.00
2023-05-08T12:05:17.205Z,1146.00
2023-05-08T12:06:24.613Z,1157.00
2023-05-08T12:07:17.614Z,1159.00
2023-05-08T12:08:17.168Z,1160.00
2023-05-08T12:09:17.199Z,1166.00
2023-05-08T12:10:17.757Z,1177.00
2023-05-08T12:11:17.196Z,1202.00
2023-05-08T12:12:17.599Z,1228.00
2023-05-08T12:13:17.204Z,1236.00
2023-05-08T12:14:17.141Z,1240.00
2023-05-08T12:15:17.222Z,1235.00
2023-05-08T12:16:17.115Z,1223.00
2023-05-08T12:17:17.841Z,1246.00
2023-05-08T12:18:17.539Z,1255.00
2023-05-08T12:19:17.544Z,1267.00
2023-05-08T12:20:18.047Z,1268.00
2023-05-08T12:21:17.483Z,1277.00